Sulphur Springs, Missouri
Current Conditions -  °F | °C
As of 5:53 PM on Friday 24 Oct 2014 (Local Time) from KCPS Reporting Station
Clear Clear  
Wind Chill: 21°   Ceiling: Unl
Heat Index: 21°   Visibility: 10mi
Dew Point: 11°   Wind: 5mph
Humidity: 53%   Direction: 150°SSE
Pressure: 30"   Gusts: NA
Location:  38.3874°N, 90.4319°W
Report Text: KCPS 242253Z 15004KT 10SM CLR 21/11 A3000 RMK AO2 SLP158 T02060106
Loading
Personal Weather Stations






























Interactive Weather Map
Tropical Storm Tracking
New forecast layout! Learn more

10-Day Weather Forecast

Advertisements
Track Severe Weather on mobile